MIDDLE PEAK CA US current weather conditions

sailwx.info

Wind from 323 at 10 knots gusting 16

Air temperature 18.3° C
Dewpoint 11.2° C

Last reported at 2020-Sep-27 05:36 UTC.
Time now 2020-Sep-27 06:48 UTC

Location: N 37°56' W 122°35'.
View on Google Maps.

See reports from other nearby stations

  
Tides and Currents Weather Stations Pressure Air Temp Water Temp Dewpoint Dewpoint Depression Visibility Wind Speed Wind Dir Waves Ship Positions
date/time (UTC)wind fromknots sea level pressurealtimeterstation pressurevisibilityair tempwater tempwave heightnotes
2020-Sep-27 05:36 323 10 gusting 16 18.3
2020-Sep-27 04:36 321 12 gusting 22 18.3
2020-Sep-27 03:36 321 14 gusting 26 18.9
2020-Sep-27 02:36 327 18 gusting 25 19.4
2020-Sep-27 01:36 326 18 gusting 26 20.6
2020-Sep-27 00:36 321 13 gusting 27 22.2
2020-Sep-26 23:36 321 13 gusting 23 22.8
2020-Sep-26 22:36 321 10 gusting 15 23.3
2020-Sep-26 21:36 326 8 gusting 13 24.4
2020-Sep-26 20:36 333 8 gusting 13 25.0
2020-Sep-26 19:36 327 6 gusting 8 23.9
2020-Sep-26 18:36 336 6 gusting 13 22.2
2020-Sep-26 17:36 331 8 gusting 20 20.6
2020-Sep-26 16:36 333 13 gusting 23 18.3
2020-Sep-26 15:36 332 14 gusting 25 17.8
2020-Sep-26 14:36 332 16 gusting 25 16.1
2020-Sep-26 13:36 332 16 gusting 24 16.7
2020-Sep-26 12:36 336 15 gusting 28 16.1
2020-Sep-26 11:36 332 15 gusting 33 16.7
2020-Sep-26 10:36 334 21 gusting 35 17.2
2020-Sep-26 09:36 329 17 gusting 28 17.2
2020-Sep-26 08:36 329 19 gusting 35 17.2
2020-Sep-26 07:36 326 19 gusting 27 17.2
2020-Sep-26 06:36 331 18 gusting 24 17.8
2020-Sep-26 05:36 331 15 gusting 20 17.8
2020-Sep-26 04:36 328 13 gusting 23 18.3
2020-Sep-26 03:36 327 13 gusting 19 18.3
2020-Sep-26 02:36 323 13 gusting 19 18.3
2020-Sep-26 01:36 310 10 gusting 19 18.9
2020-Sep-26 00:36 295 11 gusting 15 18.9
2020-Sep-25 23:36 306 6 gusting 7 20.6
2020-Sep-25 22:36 250 2 gusting 10 23.9
2020-Sep-25 21:36 335 6 gusting 13 23.3
2020-Sep-25 20:36 328 6 gusting 11 22.2
2020-Sep-25 19:36 337 7 gusting 11 21.7
2020-Sep-25 18:36 316 5 gusting 10 20.0
2020-Sep-25 17:36 321 9 gusting 14 17.8
2020-Sep-25 16:36 325 11 gusting 16 16.1
2020-Sep-25 15:36 317 9 gusting 15 15.6
2020-Sep-25 14:36 309 13 gusting 18 13.3
2020-Sep-25 13:36 312 12 gusting 19 12.8
2020-Sep-25 12:36 328 13 gusting 22 12.8
2020-Sep-25 11:36 314 14 gusting 22 11.7
2020-Sep-25 10:36 319 16 gusting 26 12.2
2020-Sep-25 09:36 319 14 gusting 22 12.2
2020-Sep-25 08:36 310 16 gusting 25 12.2
2020-Sep-25 07:36 313 14 gusting 24 12.2
2020-Sep-25 06:36 313 16 gusting 24 12.2